createdAt,value
2023-02-27T00:04:23.429Z,8.02
2023-02-27T00:09:22.220Z,8.50
2023-02-27T00:14:21.099Z,7.72
2023-02-27T00:19:21.726Z,6.50
2023-02-27T00:24:22.629Z,7.50
2023-02-27T00:29:21.452Z,7.50
2023-02-27T00:34:23.623Z,6.68
2023-02-27T00:39:26.386Z,7.00
2023-02-27T00:44:25.079Z,7.65
2023-02-27T00:49:25.432Z,8.65
2023-02-27T00:54:24.356Z,8.40
2023-02-27T00:59:24.475Z,9.13
2023-02-27T01:04:24.817Z,9.00
2023-02-27T01:09:26.180Z,8.77
2023-02-27T01:14:26.455Z,7.20
2023-02-27T01:19:25.602Z,8.43
2023-02-27T01:24:24.308Z,6.72
2023-02-27T01:29:24.212Z,6.78
2023-02-27T01:34:24.479Z,7.45
2023-02-27T01:39:23.343Z,7.43
2023-02-27T01:44:22.323Z,6.95
2023-02-27T01:49:26.820Z,6.20
2023-02-27T01:54:28.078Z,7.53
2023-02-27T01:59:26.838Z,7.05
2023-02-27T02:04:29.281Z,6.35
2023-02-27T02:09:31.355Z,6.88
2023-02-27T02:14:30.349Z,7.00
2023-02-27T02:20:07.569Z,7.97
2023-02-27T02:25:49.991Z,7.82
2023-02-27T02:31:21.945Z,7.80
2023-02-27T02:37:12.283Z,8.50
2023-02-27T02:42:21.338Z,8.98
2023-02-27T02:47:27.662Z,8.05
2023-02-27T02:52:36.726Z,8.93
2023-02-27T02:57:41.185Z,8.88
2023-02-27T03:02:46.653Z,7.25
2023-02-27T03:07:52.158Z,8.32
2023-02-27T03:12:59.709Z,8.32
2023-02-27T03:18:04.774Z,8.90
2023-02-27T03:23:10.911Z,8.77
2023-02-27T03:28:14.666Z,10.43
2023-02-27T03:33:20.126Z,11.23
2023-02-27T03:38:28.101Z,10.60
2023-02-27T03:43:38.817Z,9.98
2023-02-27T03:48:38.628Z,11.20
2023-02-27T03:53:43.032Z,9.55
2023-02-27T03:58:44.548Z,11.02
2023-02-27T04:03:52.031Z,11.32
2023-02-27T04:09:12.312Z,12.57
2023-02-27T04:14:35.739Z,11.52
2023-02-27T04:19:57.379Z,13.98
2023-02-27T04:25:06.823Z,12.27
2023-02-27T04:30:17.935Z,14.88
2023-02-27T04:35:23.362Z,11.63
2023-02-27T04:40:29.207Z,10.93
2023-02-27T04:45:32.931Z,10.25
2023-02-27T04:50:37.788Z,12.68
2023-02-27T04:55:44.823Z,15.20
2023-02-27T05:00:51.003Z,11.18
2023-02-27T05:06:05.281Z,12.07
2023-02-27T05:11:13.080Z,10.13
2023-02-27T05:16:22.534Z,10.63
2023-02-27T05:21:29.588Z,11.00
2023-02-27T05:26:39.930Z,10.27
2023-02-27T05:31:49.022Z,11.05
2023-02-27T05:36:53.920Z,10.13
2023-02-27T05:41:58.406Z,10.45
2023-02-27T05:47:01.489Z,11.38
2023-02-27T05:52:03.794Z,27.55
2023-02-27T05:57:05.955Z,63.13
2023-02-27T06:02:06.839Z,17.23
2023-02-27T06:07:08.432Z,11.85
2023-02-27T06:12:07.752Z,12.57
2023-02-27T06:17:08.042Z,10.60
2023-02-27T06:22:06.912Z,35.55
2023-02-27T06:27:05.781Z,23.15
2023-02-27T06:32:04.549Z,14.77
2023-02-27T06:37:04.897Z,12.55
2023-02-27T06:42:03.600Z,12.05
2023-02-27T06:47:02.510Z,13.13
2023-02-27T06:52:01.293Z,12.50
2023-02-27T06:57:01.578Z,13.07
2023-02-27T07:02:00.733Z,13.95
2023-02-27T07:07:32.900Z,16.83
2023-02-27T07:12:20.350Z,17.75
2023-02-27T07:17:19.132Z,18.10
2023-02-27T07:22:17.930Z,17.20
2023-02-27T07:27:16.795Z,14.18
2023-02-27T07:32:17.047Z,15.38
2023-02-27T07:37:16.067Z,15.40
2023-02-27T07:42:14.879Z,14.43
2023-02-27T07:47:13.715Z,16.25
2023-02-27T07:52:13.927Z,15.25
2023-02-27T07:57:12.682Z,13.85
2023-02-27T08:02:12.518Z,12.13
2023-02-27T08:07:11.273Z,14.82
2023-02-27T08:12:11.516Z,15.68
2023-02-27T08:17:10.290Z,19.45
2023-02-27T08:22:09.077Z,14.57
2023-02-27T08:27:08.197Z,15.18
2023-02-27T08:32:08.485Z,17.02
2023-02-27T08:37:07.280Z,15.00
2023-02-27T08:42:07.270Z,16.50
2023-02-27T08:47:06.366Z,18.38
2023-02-27T08:52:06.721Z,20.50
2023-02-27T08:57:05.787Z,18.88
2023-02-27T09:02:05.221Z,21.95
2023-02-27T09:07:04.085Z,17.65
2023-02-27T09:12:04.610Z,18.15
2023-02-27T09:17:03.648Z,17.17
2023-02-27T09:22:02.539Z,18.98
2023-02-27T09:27:01.918Z,19.50
2023-02-27T09:32:02.262Z,18.50
2023-02-27T09:37:01.538Z,15.90
2023-02-27T09:42:04.927Z,15.50
2023-02-27T09:47:06.988Z,22.33
2023-02-27T09:52:05.756Z,18.90
2023-02-27T09:57:07.019Z,17.88
2023-02-27T10:02:23.564Z,17.92
2023-02-27T10:07:29.733Z,17.08
2023-02-27T10:12:43.121Z,23.60
2023-02-27T10:17:48.577Z,21.35
2023-02-27T10:22:48.494Z,18.10
2023-02-27T10:27:49.924Z,18.75
2023-02-27T10:32:53.035Z,17.75
2023-02-27T10:37:56.908Z,18.70
2023-02-27T10:42:57.697Z,16.35
2023-02-27T10:47:58.035Z,17.85
2023-02-27T10:53:00.203Z,16.55
2023-02-27T10:58:00.553Z,17.25
2023-02-27T11:03:00.914Z,15.32
2023-02-27T11:08:20.696Z,13.20
2023-02-27T11:13:22.074Z,13.70
2023-02-27T11:18:28.804Z,12.50
2023-02-27T11:23:28.589Z,13.43
2023-02-27T11:28:29.835Z,14.65
2023-02-27T11:33:32.824Z,15.07
2023-02-27T11:38:34.875Z,14.63
2023-02-27T11:43:36.412Z,17.52
2023-02-27T11:48:40.404Z,18.02
2023-02-27T11:53:52.662Z,17.70
2023-02-27T11:59:00.750Z,14.50
2023-02-27T12:04:06.186Z,16.67
2023-02-27T12:09:12.669Z,13.18
2023-02-27T12:14:19.829Z,10.50
2023-02-27T12:19:27.457Z,9.07
2023-02-27T12:24:32.067Z,9.80
2023-02-27T12:29:36.116Z,6.65
2023-02-27T12:34:42.189Z,7.38
2023-02-27T12:39:43.719Z,7.32
2023-02-27T12:45:03.848Z,6.65
2023-02-27T12:50:08.393Z,9.20
2023-02-27T12:55:14.353Z,8.77
2023-02-27T13:00:17.189Z,9.00
2023-02-27T13:05:32.357Z,7.00
2023-02-27T13:10:36.827Z,5.85
2023-02-27T13:15:42.311Z,6.63
2023-02-27T13:20:50.147Z,9.00
2023-02-27T13:25:51.845Z,6.78
2023-02-27T13:31:02.658Z,7.03
2023-02-27T13:36:13.621Z,7.63
2023-02-27T13:41:48.556Z,6.95
2023-02-27T13:46:48.027Z,7.10
2023-02-27T13:51:49.827Z,5.95
2023-02-27T13:56:50.481Z,7.65
2023-02-27T14:01:53.476Z,7.30
2023-02-27T14:07:00.302Z,6.75
2023-02-27T14:12:03.326Z,7.47
2023-02-27T14:17:03.735Z,6.60
2023-02-27T14:22:25.618Z,8.77
2023-02-27T14:27:45.738Z,7.90
2023-02-27T14:32:55.948Z,6.72
2023-02-27T14:37:59.013Z,6.55
2023-02-27T14:43:06.729Z,10.38
2023-02-27T14:48:12.146Z,8.25
2023-02-27T14:53:50.647Z,10.13
2023-02-27T14:59:04.207Z,5.40
2023-02-27T15:04:08.926Z,8.55
2023-02-27T15:09:10.159Z,8.60
2023-02-27T15:14:22.023Z,10.10
2023-02-27T15:19:21.906Z,7.43
2023-02-27T15:24:31.431Z,7.30
2023-02-27T15:29:36.564Z,6.90
2023-02-27T15:34:36.795Z,7.68
2023-02-27T15:39:38.026Z,8.57
2023-02-27T15:44:44.809Z,10.20
2023-02-27T15:49:44.357Z,9.77
2023-02-27T15:54:55.578Z,9.88
2023-02-27T15:59:56.458Z,10.00
2023-02-27T16:04:55.593Z,8.70
2023-02-27T16:09:59.139Z,11.05
2023-02-27T16:15:23.746Z,11.18
2023-02-27T16:20:46.876Z,14.13
2023-02-27T16:26:05.289Z,12.32
2023-02-27T16:31:04.326Z,12.80
2023-02-27T16:36:17.118Z,11.35
2023-02-27T16:41:21.698Z,11.98
2023-02-27T16:46:22.569Z,17.90
2023-02-27T16:51:26.427Z,13.23
2023-02-27T16:56:38.105Z,12.45
2023-02-27T17:01:37.722Z,11.10
2023-02-27T17:06:43.962Z,11.77
2023-02-27T17:11:44.508Z,12.45
2023-02-27T17:16:43.838Z,11.45
2023-02-27T17:21:47.196Z,13.02
2023-02-27T17:26:51.472Z,10.98
2023-02-27T17:31:52.023Z,11.35
2023-02-27T17:36:53.379Z,8.43
2023-02-27T17:41:55.323Z,9.57
2023-02-27T17:46:54.244Z,9.50
2023-02-27T17:51:53.585Z,9.30
2023-02-27T17:56:56.103Z,9.82
2023-02-27T18:01:56.114Z,7.97
2023-02-27T18:06:56.081Z,9.00
2023-02-27T18:12:00.307Z,9.30
2023-02-27T18:17:01.620Z,9.88
2023-02-27T18:22:00.885Z,10.77
2023-02-27T18:27:02.560Z,10.77
2023-02-27T18:32:05.546Z,11.68
2023-02-27T18:37:06.870Z,10.75
2023-02-27T18:42:07.723Z,11.18
2023-02-27T18:47:08.527Z,9.98
2023-02-27T18:52:12.671Z,9.93
2023-02-27T18:57:13.826Z,9.88
2023-02-27T19:02:17.886Z,10.30
2023-02-27T19:07:18.717Z,10.88
2023-02-27T19:12:18.884Z,11.10
2023-02-27T19:17:17.802Z,10.15
2023-02-27T19:22:20.283Z,10.57
2023-02-27T19:27:21.045Z,9.37
2023-02-27T19:32:22.688Z,9.18
2023-02-27T19:37:23.879Z,8.05
2023-02-27T19:42:27.573Z,9.13
2023-02-27T19:47:26.300Z,10.25
2023-02-27T19:52:25.521Z,10.98
2023-02-27T19:57:26.717Z,9.98
2023-02-27T20:02:26.470Z,8.25
2023-02-27T20:07:29.214Z,9.20
2023-02-27T20:12:29.534Z,8.82
2023-02-27T20:17:28.851Z,8.52
2023-02-27T20:22:28.033Z,8.75
2023-02-27T20:27:27.403Z,7.32
2023-02-27T20:32:27.637Z,7.47
2023-02-27T20:37:28.927Z,8.88
2023-02-27T20:42:28.014Z,6.68
2023-02-27T20:47:28.207Z,6.85
2023-02-27T20:52:29.140Z,5.75
2023-02-27T20:57:27.953Z,6.25
2023-02-27T21:02:28.071Z,4.95
2023-02-27T21:07:26.871Z,4.70
2023-02-27T21:12:25.769Z,5.05
2023-02-27T21:17:26.178Z,5.30
2023-02-27T21:22:26.394Z,5.10
2023-02-27T21:27:25.160Z,4.97
2023-02-27T21:32:24.018Z,5.75
2023-02-27T21:37:22.781Z,6.22
2023-02-27T21:42:23.248Z,6.45
2023-02-27T21:47:21.976Z,5.50
2023-02-27T21:52:20.714Z,3.75
2023-02-27T21:57:21.654Z,4.10
2023-02-27T22:02:21.886Z,4.72
2023-02-27T22:07:20.612Z,4.50
2023-02-27T22:12:19.652Z,3.80
2023-02-27T22:17:18.412Z,4.15
2023-02-27T22:22:18.649Z,3.97
2023-02-27T22:27:17.487Z,3.97
2023-02-27T22:32:16.465Z,5.45
2023-02-27T22:37:16.264Z,5.03
2023-02-27T22:42:16.415Z,5.50
2023-02-27T22:47:15.522Z,5.07
2023-02-27T22:52:14.276Z,5.85
2023-02-27T22:57:12.938Z,5.63
2023-02-27T23:02:13.205Z,6.25
2023-02-27T23:07:11.991Z,5.82
2023-02-27T23:12:10.734Z,5.82
2023-02-27T23:17:09.470Z,5.60
2023-02-27T23:22:09.982Z,5.60
2023-02-27T23:27:25.327Z,6.13
2023-02-27T23:32:25.130Z,6.70
2023-02-27T23:37:25.324Z,5.45
2023-02-27T23:42:24.098Z,6.10
2023-02-27T23:47:39.879Z,5.63
2023-02-27T23:52:40.177Z,6.10
2023-02-27T23:57:38.960Z,5.70
